Time;durP1;ratioP1;P1;durP2;ratioP2;P2;SDS_P1;SDS_P2;PMS_P1;PMS_P2;Temp;Humidity;BMP_temperature;BMP_pressure;BME280_temperature;BME280_humidity;BME280_pressure;Samples;Min_cycle;Max_cycle;Signal;HPM_P1;HPM_P2
2023/08/07 00:01:21;;;;;;;13.32;6.72;;;;;;;-140.66;100.00;55571.53;5136616;27;20123;-73
2023/08/07 00:04:07;;;;;;;8.30;7.18;;;;;;;-140.66;100.00;55571.53;5137892;28;20399;-73
2023/08/07 00:06:53;;;;;;;7.03;6.28;;;;;;;-140.66;100.00;55571.53;5138202;28;20532;-73
2023/08/07 00:09:39;;;;;;;6.95;5.93;;;;;;;-140.66;100.00;55571.53;5135870;28;20023;-73
2023/08/07 00:12:24;;;;;;;6.72;5.93;;;;;;;-140.66;100.00;55571.53;5135082;28;20365;-74
2023/08/07 00:15:11;;;;;;;6.50;5.28;;;;;;;-140.66;100.00;55571.53;5133992;28;20023;-72
2023/08/07 00:17:57;;;;;;;6.10;5.50;;;;;;;-140.66;100.00;55571.53;5134875;28;20027;-73
2023/08/07 00:20:42;;;;;;;7.03;5.30;;;;;;;-140.66;100.00;55571.53;5135238;28;20027;-73
2023/08/07 00:23:28;;;;;;;6.13;5.53;;;;;;;-140.66;100.00;55571.53;5135510;27;20092;-73
2023/08/07 00:26:14;;;;;;;6.40;5.80;;;;;;;-140.66;100.00;55571.53;5138916;27;20038;-73
2023/08/07 00:28:59;;;;;;;7.90;5.85;;;;;;;-140.66;100.00;55571.53;5138642;27;20055;-73
2023/08/07 00:31:45;;;;;;;8.20;6.28;;;;;;;-140.66;100.00;55571.53;5138420;27;20035;-73
2023/08/07 00:34:31;;;;;;;8.40;6.43;;;;;;;-140.66;100.00;55571.53;5139226;27;20046;-73
2023/08/07 00:37:17;;;;;;;6.93;6.03;;;;;;;-140.66;100.00;55571.53;5138261;27;20460;-73
2023/08/07 00:40:03;;;;;;;7.85;6.38;;;;;;;-140.66;100.00;55571.53;5138754;27;20092;-74
2023/08/07 00:42:48;;;;;;;8.68;6.68;;;;;;;-140.66;100.00;55571.53;5138477;27;20056;-72
2023/08/07 00:45:40;;;;;;;8.27;6.70;;;;;;;-140.66;100.00;55571.53;5138285;27;20023;-72
2023/08/07 00:48:26;;;;;;;7.43;6.07;;;;;;;-140.66;100.00;55571.53;5137779;27;20154;-73
2023/08/07 00:51:12;;;;;;;9.25;5.97;;;;;;;-140.66;100.00;55571.53;5138089;27;20118;-73
2023/08/07 00:53:58;;;;;;;9.48;6.43;;;;;;;-140.66;100.00;55571.53;5137472;27;20015;-73
2023/08/07 00:56:45;;;;;;;6.35;5.75;;;;;;;-140.66;100.00;55571.53;5138421;27;20026;-73
2023/08/07 00:59:31;;;;;;;8.45;5.70;;;;;;;-140.66;100.00;55571.53;5138746;27;20015;-73
2023/08/07 01:02:17;;;;;;;6.15;5.40;;;;;;;-140.66;100.00;55571.53;5138851;27;20035;-72
2023/08/07 01:05:02;;;;;;;5.72;5.13;;;;;;;-140.66;100.00;55571.53;5138149;27;20027;-73
2023/08/07 01:07:51;;;;;;;5.93;5.28;;;;;;;-140.66;100.00;55571.53;5138565;27;20095;-72
2023/08/07 01:10:42;;;;;;;7.03;5.57;;;;;;;-140.66;100.00;55571.53;5138797;27;20353;-73
2023/08/07 01:13:30;;;;;;;5.00;4.50;;;;;;;-140.66;100.00;55571.53;5137086;27;20415;-73
2023/08/07 01:16:21;;;;;;;7.00;5.25;;;;;;;-140.66;100.00;55571.53;5137599;27;20023;-73
2023/08/07 01:19:19;;;;;;;6.18;5.00;;;;;;;-140.66;100.00;55571.53;5137884;27;20401;-74
2023/08/07 01:22:23;;;;;;;5.03;4.45;;;;;;;-140.66;100.00;55571.53;5137372;27;20027;-73
2023/08/07 01:25:09;;;;;;;5.28;4.75;;;;;;;-140.66;100.00;55571.53;5137229;27;20039;-73
2023/08/07 01:28:03;;;;;;;5.18;4.20;;;;;;;-140.66;100.00;55571.53;5137559;27;20034;-73
2023/08/07 01:30:54;;;;;;;5.38;4.68;;;;;;;-140.66;100.00;55571.53;5137394;27;20054;-72
2023/08/07 01:33:51;;;;;;;4.60;4.20;;;;;;;-140.66;100.00;55571.53;5136896;27;20019;-72
2023/08/07 01:36:39;;;;;;;5.55;4.00;;;;;;;-140.66;100.00;55571.53;5136313;27;20037;-73
2023/08/07 01:39:25;;;;;;;5.95;4.32;;;;;;;-140.66;100.00;55571.53;5136368;27;20031;-73
2023/08/07 01:42:11;;;;;;;6.55;4.40;;;;;;;-140.66;100.00;55571.53;5137298;27;20027;-72
2023/08/07 01:44:58;;;;;;;4.57;3.80;;;;;;;-140.66;100.00;55571.53;5136505;27;20027;-72
2023/08/07 01:47:43;;;;;;;4.38;3.97;;;;;;;-140.66;100.00;55571.53;5135620;27;20039;-72
2023/08/07 01:50:30;;;;;;;4.18;3.78;;;;;;;-140.66;100.00;55571.53;5136988;27;20019;-72
2023/08/07 01:53:16;;;;;;;6.35;3.97;;;;;;;-140.66;100.00;55571.53;5136174;27;20058;-73
2023/08/07 01:56:02;;;;;;;6.65;4.43;;;;;;;-140.66;100.00;55571.53;5137860;27;20037;-73
2023/08/07 01:58:48;;;;;;;4.78;4.28;;;;;;;-140.66;100.00;55571.53;5136248;27;20023;-74
2023/08/07 02:01:34;;;;;;;5.43;4.50;;;;;;;-140.66;100.00;55571.53;5137074;27;20063;-73
2023/08/07 02:04:19;;;;;;;6.28;4.60;;;;;;;-140.66;100.00;55571.53;5136623;27;20030;-73
2023/08/07 02:07:05;;;;;;;5.90;4.78;;;;;;;-140.66;100.00;55571.53;5136547;27;20409;-73
2023/08/07 02:09:51;;;;;;;5.72;5.05;;;;;;;-140.66;100.00;55571.53;5137099;27;20356;-74
2023/08/07 02:12:37;;;;;;;5.65;5.05;;;;;;;-140.66;100.00;55571.53;5136549;27;20027;-73
2023/08/07 02:15:22;;;;;;;5.32;4.82;;;;;;;-140.66;100.00;55571.53;5136572;27;20019;-73
2023/08/07 02:18:08;;;;;;;6.07;5.22;;;;;;;-140.66;100.00;55571.53;5135775;27;20034;-73
2023/08/07 02:20:54;;;;;;;5.93;4.90;;;;;;;-140.66;100.00;55571.53;5136535;27;20035;-72
2023/08/07 02:23:39;;;;;;;5.72;5.10;;;;;;;-140.66;100.00;55571.53;5135913;27;20062;-72
2023/08/07 02:26:25;;;;;;;5.93;5.07;;;;;;;-140.66;100.00;55571.53;5136271;27;20035;-73
2023/08/07 02:29:11;;;;;;;6.63;5.70;;;;;;;-140.66;100.00;55571.53;5136363;27;20038;-72
2023/08/07 02:31:57;;;;;;;6.38;5.78;;;;;;;-140.66;100.00;55571.53;5135970;27;20529;-72
2023/08/07 02:34:43;;;;;;;7.10;5.95;;;;;;;-140.66;100.00;55571.53;5136010;27;20114;-74
2023/08/07 02:37:29;;;;;;;7.93;5.38;;;;;;;-140.66;100.00;55571.53;5136043;27;20106;-72
2023/08/07 02:40:15;;;;;;;7.63;5.35;;;;;;;-140.66;100.00;55571.53;5135670;27;20039;-72
2023/08/07 02:43:01;;;;;;;6.20;5.60;;;;;;;-140.66;100.00;55571.53;5134916;27;20027;-72
2023/08/07 02:45:46;;;;;;;5.75;5.13;;;;;;;-140.66;100.00;55571.53;5135252;27;20441;-72
2023/08/07 02:48:32;;;;;;;5.50;4.90;;;;;;;-140.66;100.00;55571.53;5134872;27;20043;-72
2023/08/07 02:51:18;;;;;;;5.85;5.30;;;;;;;-140.66;100.00;55571.53;5135679;27;20027;-73
2023/08/07 02:54:03;;;;;;;5.93;5.30;;;;;;;-140.66;100.00;55571.53;5135270;27;20105;-73
2023/08/07 02:56:49;;;;;;;6.60;4.82;;;;;;;-140.66;100.00;55571.53;5135547;27;20023;-73
2023/08/07 02:59:35;;;;;;;7.68;4.88;;;;;;;-140.66;100.00;55571.53;5135453;27;20046;-73
2023/08/07 03:02:21;;;;;;;5.93;4.80;;;;;;;-140.66;100.00;55571.53;5135360;27;20035;-73
2023/08/07 03:05:07;;;;;;;4.45;4.05;;;;;;;-140.66;100.00;55571.53;5135488;27;20357;-73
2023/08/07 03:07:53;;;;;;;5.93;4.53;;;;;;;-140.66;100.00;55571.53;5135782;27;20364;-73
2023/08/07 03:10:38;;;;;;;8.32;4.03;;;;;;;-140.66;100.00;55571.53;5135173;27;20414;-73
2023/08/07 03:13:25;;;;;;;7.43;3.83;;;;;;;-140.66;100.00;55571.53;5135258;27;20448;-73
2023/08/07 03:16:11;;;;;;;4.63;4.03;;;;;;;-140.66;100.00;55571.53;5135783;27;20058;-73
2023/08/07 03:18:57;;;;;;;5.25;3.92;;;;;;;-140.66;100.00;55571.53;5135351;27;20037;-74
2023/08/07 03:21:44;;;;;;;4.80;3.80;;;;;;;-140.66;100.00;55571.53;5134921;27;20444;-75
2023/08/07 03:24:30;;;;;;;4.40;3.95;;;;;;;-140.66;100.00;55571.53;5135762;27;20118;-73
2023/08/07 03:27:15;;;;;;;4.82;4.05;;;;;;;-140.66;100.00;55571.53;5134973;27;20015;-73
2023/08/07 03:30:01;;;;;;;4.18;3.78;;;;;;;-140.66;100.00;55571.53;5135617;27;20027;-73
2023/08/07 03:32:47;;;;;;;4.72;3.13;;;;;;;-140.66;100.00;55571.53;5135048;27;20360;-72
2023/08/07 03:35:33;;;;;;;4.22;3.83;;;;;;;-140.66;100.00;55571.53;5136077;27;20473;-72
2023/08/07 03:38:19;;;;;;;3.97;3.58;;;;;;;-140.66;100.00;55571.53;5134421;27;20039;-72
2023/08/07 03:41:05;;;;;;;3.70;3.28;;;;;;;-140.66;100.00;55571.53;5134974;27;20106;-72
2023/08/07 03:43:50;;;;;;;4.25;3.25;;;;;;;-140.66;100.00;55571.53;5135387;27;20034;-72
2023/08/07 03:46:36;;;;;;;4.90;3.58;;;;;;;-140.66;100.00;55571.53;5140609;27;20058;-72
2023/08/07 03:49:23;;;;;;;4.25;3.47;;;;;;;-140.66;100.00;55571.53;5142182;27;20118;-72
2023/08/07 03:52:08;;;;;;;4.93;3.70;;;;;;;-140.66;100.00;55571.53;5142071;27;20399;-71
2023/08/07 03:54:54;;;;;;;4.22;3.80;;;;;;;-140.66;100.00;55571.53;5134377;27;20020;-73
2023/08/07 03:57:40;;;;;;;3.95;3.63;;;;;;;-140.66;100.00;55571.53;5133971;27;20030;-72
2023/08/07 04:00:25;;;;;;;5.60;3.80;;;;;;;-140.66;100.00;55571.53;5135482;27;20030;-73
2023/08/07 04:03:11;;;;;;;5.65;3.83;;;;;;;-140.66;100.00;55571.53;5135224;27;20027;-73
2023/08/07 04:05:57;;;;;;;4.68;4.07;;;;;;;-140.66;100.00;55571.53;5135050;28;20347;-73
2023/08/07 04:08:45;;;;;;;4.10;3.70;;;;;;;-140.66;100.00;55571.53;5135179;28;20022;-74
2023/08/07 04:11:33;;;;;;;4.28;3.80;;;;;;;-140.66;100.00;55571.53;5146986;28;20019;-71
2023/08/07 04:14:19;;;;;;;4.30;3.90;;;;;;;-140.66;100.00;55571.53;5143078;28;20033;-73
2023/08/07 04:17:04;;;;;;;5.40;3.95;;;;;;;-140.66;100.00;55571.53;5136849;28;20031;-74
2023/08/07 04:19:50;;;;;;;4.43;3.95;;;;;;;-140.66;100.00;55571.53;5134377;28;20023;-73
2023/08/07 04:22:36;;;;;;;5.47;4.00;;;;;;;-140.66;100.00;55571.53;5135197;28;20034;-73
2023/08/07 04:25:22;;;;;;;4.68;4.20;;;;;;;-140.66;100.00;55571.53;5137612;28;20113;-75
2023/08/07 04:28:07;;;;;;;4.97;4.35;;;;;;;-140.66;100.00;55571.53;5140000;28;20023;-74
2023/08/07 04:30:53;;;;;;;8.18;4.47;;;;;;;-140.66;100.00;55571.53;5140093;28;20027;-74
2023/08/07 04:33:39;;;;;;;7.90;4.50;;;;;;;-140.66;100.00;55571.53;5140077;28;20102;-74
2023/08/07 04:36:25;;;;;;;6.43;4.60;;;;;;;-140.66;100.00;55571.53;5140522;28;20057;-74
2023/08/07 04:39:11;;;;;;;5.00;4.35;;;;;;;-140.66;100.00;55571.53;5142187;28;20023;-74
2023/08/07 04:41:58;;;;;;;5.82;4.57;;;;;;;-140.66;100.00;55571.53;5139931;28;20019;-74
2023/08/07 04:44:44;;;;;;;5.68;4.03;;;;;;;-140.66;100.00;55571.53;5136951;28;20035;-74
2023/08/07 04:47:30;;;;;;;6.63;4.78;;;;;;;-140.66;100.00;55571.53;5133566;28;20181;-74
2023/08/07 04:50:16;;;;;;;9.32;4.30;;;;;;;-140.66;100.00;55571.53;5135114;28;20460;-73
2023/08/07 04:53:01;;;;;;;5.45;4.47;;;;;;;-140.66;100.00;55571.53;5134254;28;20045;-74
2023/08/07 04:55:47;;;;;;;10.93;4.78;;;;;;;-140.66;100.00;55571.53;5135130;28;20114;-74
2023/08/07 04:58:33;;;;;;;7.60;4.38;;;;;;;-140.66;100.00;55571.53;5133566;28;20046;-73
2023/08/07 05:01:19;;;;;;;7.50;4.78;;;;;;;-140.66;100.00;55571.53;5133785;28;20474;-73
2023/08/07 05:04:05;;;;;;;4.82;4.38;;;;;;;-140.66;100.00;55571.53;5134839;28;20079;-74
2023/08/07 05:06:51;;;;;;;10.45;4.63;;;;;;;-140.66;100.00;55571.53;5133651;28;20405;-74
2023/08/07 05:09:36;;;;;;;10.70;4.60;;;;;;;-140.66;100.00;55571.53;5135399;27;20114;-74
2023/08/07 05:12:22;;;;;;;5.25;4.75;;;;;;;-140.66;100.00;55571.53;5138141;27;20064;-74
2023/08/07 05:15:09;;;;;;;9.98;4.93;;;;;;;-140.66;100.00;55571.53;5137362;27;20035;-74
2023/08/07 05:17:54;;;;;;;5.28;4.47;;;;;;;-140.66;100.00;55571.53;5137284;27;20038;-72
2023/08/07 05:20:40;;;;;;;4.95;4.50;;;;;;;-140.66;100.00;55571.53;5137324;27;20055;-74
2023/08/07 05:23:26;;;;;;;4.78;4.35;;;;;;;-140.66;100.00;55571.53;5137177;27;20023;-73
2023/08/07 05:26:11;;;;;;;5.07;4.20;;;;;;;-140.66;100.00;55571.53;5137900;27;20062;-73
2023/08/07 05:28:58;;;;;;;9.45;4.47;;;;;;;-140.66;100.00;55571.53;5137590;27;20058;-74
2023/08/07 05:31:44;;;;;;;4.38;3.97;;;;;;;-140.66;100.00;55571.53;5137543;27;20083;-73
2023/08/07 05:34:30;;;;;;;4.53;4.07;;;;;;;-140.66;100.00;55571.53;5136677;27;20057;-74
2023/08/07 05:37:15;;;;;;;7.75;4.00;;;;;;;-140.66;100.00;55571.53;5136555;27;20027;-74
2023/08/07 05:40:02;;;;;;;6.18;4.00;;;;;;;-140.66;100.00;55571.53;5136622;27;20023;-74
2023/08/07 05:42:48;;;;;;;6.68;3.47;;;;;;;-140.66;100.00;55571.53;5138034;27;20100;-74
2023/08/07 05:45:33;;;;;;;5.75;3.63;;;;;;;-140.66;100.00;55571.53;5136608;27;20039;-74
2023/08/07 05:48:19;;;;;;;7.80;4.00;;;;;;;-140.66;100.00;55571.53;5136568;27;20408;-73
2023/08/07 05:51:06;;;;;;;5.78;4.20;;;;;;;-140.66;100.00;55571.53;5136232;27;20015;-74
2023/08/07 05:53:52;;;;;;;7.97;4.03;;;;;;;-140.66;100.00;55571.53;5138095;27;20046;-73
2023/08/07 05:56:38;;;;;;;8.02;4.35;;;;;;;-140.66;100.00;55571.53;5136495;27;20407;-73
2023/08/07 05:59:24;;;;;;;6.07;3.70;;;;;;;-140.66;100.00;55571.53;5136374;27;20035;-74
2023/08/07 06:02:12;;;;;;;10.15;3.63;;;;;;;-140.66;100.00;55571.53;5137062;27;20106;-74
2023/08/07 06:04:58;;;;;;;7.85;3.38;;;;;;;-140.66;100.00;55571.53;5137694;27;20019;-72
2023/08/07 06:07:44;;;;;;;5.88;3.47;;;;;;;-140.66;100.00;55571.53;5137345;27;20057;-73
2023/08/07 06:10:30;;;;;;;12.35;3.90;;;;;;;-140.66;100.00;55571.53;5138047;27;20027;-73
2023/08/07 06:13:15;;;;;;;4.38;3.75;;;;;;;-140.66;100.00;55571.53;5137011;27;20031;-73
2023/08/07 06:16:01;;;;;;;5.60;3.53;;;;;;;-140.66;100.00;55571.53;5137164;27;20087;-73
2023/08/07 06:18:47;;;;;;;3.53;3.22;;;;;;;-140.66;100.00;55571.53;5137454;27;20023;-73
2023/08/07 06:21:33;;;;;;;4.15;3.08;;;;;;;-140.66;100.00;55571.53;5135414;27;20023;-74
2023/08/07 06:24:18;;;;;;;6.70;3.28;;;;;;;-140.66;100.00;55571.53;5136338;27;20023;-75
2023/08/07 06:27:04;;;;;;;8.40;3.42;;;;;;;-140.66;100.00;55571.53;5142257;27;20030;-73
2023/08/07 06:29:50;;;;;;;3.75;3.30;;;;;;;-140.66;100.00;55571.53;5136928;27;20031;-73
2023/08/07 06:32:36;;;;;;;5.30;3.45;;;;;;;-140.66;100.00;55571.53;5147677;27;20041;-74
2023/08/07 06:35:22;;;;;;;4.38;3.10;;;;;;;-140.66;100.00;55571.53;5145215;27;20046;-75
2023/08/07 06:38:09;;;;;;;7.13;3.40;;;;;;;-140.66;100.00;55571.53;5136255;27;20356;-73
2023/08/07 06:40:54;;;;;;;9.82;3.30;;;;;;;-140.66;100.00;55571.53;5136133;27;20364;-74
2023/08/07 06:43:40;;;;;;;4.68;2.83;;;;;;;-140.66;100.00;55571.53;5136853;27;20023;-73
2023/08/07 06:46:27;;;;;;;10.13;3.13;;;;;;;-140.66;100.00;55571.53;5136648;27;20027;-74
2023/08/07 06:49:13;;;;;;;6.45;2.75;;;;;;;-140.66;100.00;55571.53;5137058;27;20035;-74
2023/08/07 06:51:59;;;;;;;4.25;2.92;;;;;;;-140.66;100.00;55571.53;5136347;27;20034;-73
2023/08/07 06:54:44;;;;;;;3.92;3.20;;;;;;;-140.66;100.00;55571.53;5143640;27;20111;-74
2023/08/07 06:57:30;;;;;;;4.25;3.13;;;;;;;-140.66;100.00;55571.53;5141384;27;20030;-74
2023/08/07 07:00:16;;;;;;;4.07;2.95;;;;;;;-140.66;100.00;55571.53;5135599;27;20023;-74
2023/08/07 07:03:02;;;;;;;5.03;3.17;;;;;;;-140.66;100.00;55571.53;5136281;27;20023;-73
2023/08/07 07:05:49;;;;;;;6.97;3.05;;;;;;;-140.66;100.00;55571.53;5136155;27;20019;-73
2023/08/07 07:08:35;;;;;;;4.15;2.83;;;;;;;-140.66;100.00;55571.53;5135287;27;20037;-73
2023/08/07 07:11:24;;;;;;;3.13;2.78;;;;;;;-140.66;100.00;55571.53;5135354;27;20049;-73
2023/08/07 07:14:10;;;;;;;5.78;2.97;;;;;;;-140.66;100.00;55571.53;5135904;27;20034;-71
2023/08/07 07:16:56;;;;;;;4.22;2.63;;;;;;;-140.66;100.00;55571.53;5135134;27;20452;-73
2023/08/07 07:19:42;;;;;;;3.95;2.92;;;;;;;-140.66;100.00;55571.53;5135784;27;20573;-74
2023/08/07 07:22:28;;;;;;;5.43;2.42;;;;;;;-140.66;100.00;55571.53;5134993;27;20027;-74
2023/08/07 07:25:14;;;;;;;6.43;2.80;;;;;;;-140.66;100.00;55571.53;5133999;27;20027;-73
2023/08/07 07:28:00;;;;;;;3.63;2.75;;;;;;;-140.66;100.00;55571.53;5134765;27;20430;-74
2023/08/07 07:30:46;;;;;;;11.50;3.05;;;;;;;-140.66;100.00;55571.53;5135983;27;20030;-73
2023/08/07 07:33:31;;;;;;;2.90;2.58;;;;;;;-140.66;100.00;55571.53;5133431;27;20023;-74
2023/08/07 07:36:18;;;;;;;4.40;2.63;;;;;;;-140.66;100.00;55571.53;5134609;27;20360;-74
2023/08/07 07:39:04;;;;;;;2.70;2.50;;;;;;;-140.66;100.00;55571.53;5135814;27;20042;-73
2023/08/07 07:41:50;;;;;;;5.78;2.88;;;;;;;-140.66;100.00;55571.53;5135631;27;20030;-74
2023/08/07 07:44:36;;;;;;;6.35;2.40;;;;;;;-140.66;100.00;55571.53;5136281;27;20026;-75
2023/08/07 07:47:22;;;;;;;4.07;2.53;;;;;;;-140.66;100.00;55571.53;5136267;27;20055;-78
2023/08/07 07:50:09;;;;;;;3.85;2.70;;;;;;;-140.66;100.00;55571.53;5135220;27;20030;-74
2023/08/07 07:52:54;;;;;;;3.75;2.58;;;;;;;-140.66;100.00;55571.53;5135124;27;20031;-74
2023/08/07 07:55:40;;;;;;;8.50;3.03;;;;;;;-140.66;100.00;55571.53;5135239;27;20038;-73
2023/08/07 07:58:26;;;;;;;5.90;3.00;;;;;;;-140.66;100.00;55571.53;5134385;27;20058;-74
2023/08/07 08:01:11;;;;;;;2.85;2.10;;;;;;;-140.66;100.00;55571.53;5134341;27;20361;-74
2023/08/07 08:03:57;;;;;;;4.35;2.90;;;;;;;-140.66;100.00;55571.53;5134511;27;20029;-75
2023/08/07 08:06:43;;;;;;;58.10;8.23;;;;;;;-140.66;100.00;55571.53;5135647;27;20428;-75
2023/08/07 08:09:29;;;;;;;6.32;2.60;;;;;;;-140.66;100.00;55571.53;5134638;27;20028;-74
2023/08/07 08:12:15;;;;;;;3.97;2.15;;;;;;;-140.66;100.00;55571.53;5134756;28;20019;-73
2023/08/07 08:15:01;;;;;;;56.47;7.00;;;;;;;-140.66;100.00;55571.53;5134661;28;20102;-73
2023/08/07 08:17:47;;;;;;;3.53;2.38;;;;;;;-140.66;100.00;55571.53;5133886;28;20167;-73
2023/08/07 08:20:33;;;;;;;4.63;2.60;;;;;;;-140.66;100.00;55571.53;5134748;28;20134;-73
2023/08/07 08:23:18;;;;;;;5.57;3.42;;;;;;;-140.66;100.00;55571.53;5134434;28;20091;-74
2023/08/07 08:26:04;;;;;;;7.53;2.97;;;;;;;-140.66;100.00;55571.53;5135543;28;20038;-74
2023/08/07 08:28:50;;;;;;;7.80;2.28;;;;;;;-140.66;100.00;55571.53;5134047;28;20442;-73
2023/08/07 08:31:36;;;;;;;2.65;1.98;;;;;;;-140.66;100.00;55571.53;5133005;28;20027;-72
2023/08/07 08:34:22;;;;;;;6.10;2.40;;;;;;;-140.66;100.00;55571.53;5134112;28;20030;-73
2023/08/07 08:37:08;;;;;;;2.20;1.85;;;;;;;-140.66;100.00;55571.53;5134014;28;20461;-73
2023/08/07 08:39:54;;;;;;;4.40;1.80;;;;;;;-140.66;100.00;55571.53;5135167;28;20465;-73
2023/08/07 08:42:40;;;;;;;3.25;2.00;;;;;;;-140.66;100.00;55571.53;5134509;28;20019;-73
2023/08/07 08:45:27;;;;;;;5.25;2.50;;;;;;;-140.66;100.00;55571.53;5137526;27;20054;-74
2023/08/07 08:48:21;;;;;;;2.65;1.70;;;;;;;-140.66;100.00;55571.53;5136854;27;20164;-73
2023/08/07 08:51:08;;;;;;;4.47;2.40;;;;;;;-140.66;100.00;55571.53;5138252;27;20031;-74
2023/08/07 08:53:56;;;;;;;118.18;13.35;;;;;;;-140.66;100.00;55571.53;5138426;27;20069;-74
2023/08/07 08:56:42;;;;;;;10.80;2.60;;;;;;;-140.66;100.00;55571.53;5138116;27;20083;-74
2023/08/07 08:59:28;;;;;;;7.13;2.00;;;;;;;-140.66;100.00;55571.53;5138173;27;20035;-72
2023/08/07 09:02:14;;;;;;;3.10;2.03;;;;;;;-140.66;100.00;55571.53;5137614;27;20027;-73
2023/08/07 09:05:00;;;;;;;3.25;1.80;;;;;;;-140.66;100.00;55571.53;5137643;27;20033;-74
2023/08/07 09:07:47;;;;;;;4.22;2.33;;;;;;;-140.66;100.00;55571.53;5137557;27;20476;-74
2023/08/07 09:10:34;;;;;;;7.90;1.80;;;;;;;-140.66;100.00;55571.53;5137679;27;20038;-74
2023/08/07 09:13:23;;;;;;;3.95;1.63;;;;;;;-140.66;100.00;55571.53;5138027;27;20027;-73
2023/08/07 09:16:10;;;;;;;3.33;1.90;;;;;;;-140.66;100.00;55571.53;5136889;27;20054;-73
2023/08/07 09:18:56;;;;;;;2.15;1.90;;;;;;;-140.66;100.00;55571.53;5136861;27;20023;-74
2023/08/07 09:21:42;;;;;;;4.97;2.00;;;;;;;-140.66;100.00;55571.53;5138232;27;20027;-73
2023/08/07 09:24:28;;;;;;;2.53;2.00;;;;;;;-140.66;100.00;55571.53;5136823;27;20033;-73
2023/08/07 09:27:14;;;;;;;2.72;2.03;;;;;;;-140.66;100.00;55571.53;5136898;27;20027;-74
2023/08/07 09:30:00;;;;;;;3.05;2.20;;;;;;;-140.66;100.00;55571.53;5138005;27;20057;-75
2023/08/07 09:32:47;;;;;;;2.10;1.90;;;;;;;-140.66;100.00;55571.53;5138451;27;20027;-73
2023/08/07 09:35:34;;;;;;;10.73;2.42;;;;;;;-140.66;100.00;55571.53;5137261;27;20016;-73
2023/08/07 09:38:22;;;;;;;3.55;2.03;;;;;;;-140.66;100.00;55571.53;5136696;27;20096;-73
2023/08/07 09:41:08;;;;;;;2.65;1.60;;;;;;;-140.66;100.00;55571.53;5137633;27;20031;-75
2023/08/07 09:43:54;;;;;;;3.17;1.80;;;;;;;-140.66;100.00;55571.53;5136971;27;20034;-73
2023/08/07 09:46:44;;;;;;;3.13;1.90;;;;;;;-140.66;100.00;55571.53;5137153;27;20349;-72
2023/08/07 09:49:32;;;;;;;3.75;2.10;;;;;;;-140.66;100.00;55571.53;5136931;27;20019;-73
2023/08/07 09:52:18;;;;;;;3.85;2.00;;;;;;;-140.66;100.00;55571.53;5136738;27;20444;-73
2023/08/07 09:55:05;;;;;;;4.22;2.22;;;;;;;-140.66;100.00;55571.53;5137206;27;20114;-74
2023/08/07 09:57:51;;;;;;;8.35;2.25;;;;;;;-140.66;100.00;55571.53;5137634;27;20341;-74
2023/08/07 10:00:37;;;;;;;8.63;2.20;;;;;;;-140.66;100.00;55571.53;5158148;27;20027;-73
2023/08/07 10:03:24;;;;;;;3.60;2.00;;;;;;;-140.66;100.00;55571.53;5138564;27;20091;-74
2023/08/07 10:06:10;;;;;;;2.92;1.80;;;;;;;-140.66;100.00;55571.53;5136699;27;20101;-74
2023/08/07 10:08:57;;;;;;;2.10;1.90;;;;;;;-140.66;100.00;55571.53;5136834;27;20042;-75
2023/08/07 10:11:43;;;;;;;2.53;1.88;;;;;;;-140.66;100.00;55571.53;5137042;27;20106;-74
2023/08/07 10:14:30;;;;;;;3.25;2.00;;;;;;;-140.66;100.00;55571.53;5135439;27;20106;-73
2023/08/07 10:17:16;;;;;;;3.60;1.88;;;;;;;-140.66;100.00;55571.53;5137501;27;20031;-74
2023/08/07 10:20:03;;;;;;;3.35;2.10;;;;;;;-140.66;100.00;55571.53;5136671;27;20130;-74
2023/08/07 10:22:50;;;;;;;4.28;2.53;;;;;;;-140.66;100.00;55571.53;5154039;27;20046;-73
2023/08/07 10:25:39;;;;;;;3.22;2.03;;;;;;;-140.66;100.00;55571.53;5137007;27;20368;-74
2023/08/07 10:28:26;;;;;;;3.00;2.17;;;;;;;-140.66;100.00;55571.53;5136020;27;20030;-75
2023/08/07 10:31:13;;;;;;;3.58;1.80;;;;;;;-140.66;100.00;55571.53;5135363;27;20039;-74
2023/08/07 10:33:59;;;;;;;2.60;2.15;;;;;;;-140.66;100.00;55571.53;5135900;27;20033;-74
2023/08/07 10:36:45;;;;;;;2.60;2.40;;;;;;;-140.66;100.00;55571.53;5134732;27;20368;-74
2023/08/07 10:39:31;;;;;;;2.45;1.98;;;;;;;-140.66;100.00;55571.53;5135657;27;20080;-73
2023/08/07 10:42:17;;;;;;;2.20;2.00;;;;;;;-140.66;100.00;55571.53;5136549;27;20088;-73
2023/08/07 10:45:05;;;;;;;2.75;2.20;;;;;;;-140.66;100.00;55571.53;5134631;27;20015;-74
2023/08/07 10:48:06;;;;;;;4.68;2.38;;;;;;;-140.66;100.00;55571.53;5134840;27;20051;-73
2023/08/07 10:50:56;;;;;;;4.30;2.00;;;;;;;-140.66;100.00;55571.53;5135486;27;20041;-74
2023/08/07 10:53:47;;;;;;;4.35;1.55;;;;;;;-140.66;100.00;55571.53;5134592;27;20027;-73
2023/08/07 10:56:43;;;;;;;2.55;1.80;;;;;;;-140.66;100.00;55571.53;5136351;27;20023;-74
2023/08/07 10:59:29;;;;;;;2.58;1.85;;;;;;;-140.66;100.00;55571.53;5136012;27;20106;-72
2023/08/07 11:02:24;;;;;;;2.63;1.83;;;;;;;-140.66;100.00;55571.53;5135477;27;20038;-72
2023/08/07 11:05:10;;;;;;;4.75;1.98;;;;;;;-140.66;100.00;55571.53;5135247;27;20027;-73
2023/08/07 11:07:57;;;;;;;3.80;1.90;;;;;;;-140.66;100.00;55571.53;5134960;27;20031;-73
2023/08/07 11:10:43;;;;;;;2.75;1.80;;;;;;;-140.66;100.00;55571.53;5134358;27;20114;-73
2023/08/07 11:13:29;;;;;;;6.10;1.75;;;;;;;-140.66;100.00;55571.53;5135996;27;20046;-74
2023/08/07 11:16:15;;;;;;;3.00;1.63;;;;;;;-140.66;100.00;55571.53;5134573;27;20011;-73
2023/08/07 11:19:03;;;;;;;2.15;1.50;;;;;;;-140.66;100.00;55571.53;5135709;27;20448;-74
2023/08/07 11:21:50;;;;;;;2.40;2.20;;;;;;;-140.66;100.00;55571.53;5134703;27;20031;-74
2023/08/07 11:24:37;;;;;;;7.50;1.95;;;;;;;-140.66;100.00;55571.53;5136331;27;20106;-74
2023/08/07 11:27:23;;;;;;;3.60;1.73;;;;;;;-140.66;100.00;55571.53;5135395;27;20053;-74
2023/08/07 11:30:11;;;;;;;2.70;1.67;;;;;;;-140.66;100.00;55571.53;5136023;27;20351;-73
2023/08/07 11:32:59;;;;;;;7.22;1.58;;;;;;;-140.66;100.00;55571.53;5134930;27;20462;-74
2023/08/07 11:35:47;;;;;;;4.53;1.50;;;;;;;-140.66;100.00;55571.53;5135152;27;20046;-74
2023/08/07 11:38:36;;;;;;;2.38;1.40;;;;;;;-140.66;100.00;55571.53;5134910;27;20064;-74
2023/08/07 11:41:22;;;;;;;8.05;1.20;;;;;;;-140.66;100.00;55571.53;5134467;27;20030;-73
2023/08/07 11:44:08;;;;;;;1.60;1.15;;;;;;;-140.66;100.00;55571.53;5133975;27;20051;-74
2023/08/07 11:46:54;;;;;;;2.88;1.20;;;;;;;-140.66;100.00;55571.53;5135137;27;20127;-74
2023/08/07 11:49:39;;;;;;;2.25;1.10;;;;;;;-140.66;100.00;55571.53;5134147;27;20023;-72
2023/08/07 11:52:26;;;;;;;1.77;1.40;;;;;;;-140.66;100.00;55571.53;5119093;27;20022;-73
2023/08/07 11:55:14;;;;;;;2.42;1.30;;;;;;;-140.66;100.00;55571.53;5135490;27;20479;-74
2023/08/07 11:58:03;;;;;;;2.10;1.20;;;;;;;-140.66;100.00;55571.53;5134426;27;20027;-73
2023/08/07 12:00:49;;;;;;;1.20;1.10;;;;;;;-140.66;100.00;55571.53;5134622;27;20023;-74
2023/08/07 12:03:41;;;;;;;2.47;1.20;;;;;;;-140.66;100.00;55571.53;5134529;27;20458;-74
2023/08/07 12:06:27;;;;;;;1.63;0.93;;;;;;;-140.66;100.00;55571.53;5135297;27;20023;-73
2023/08/07 12:09:12;;;;;;;5.88;1.00;;;;;;;-140.66;100.00;55571.53;5133548;27;20031;-73
2023/08/07 12:11:58;;;;;;;2.92;1.02;;;;;;;-140.66;100.00;55571.53;5133840;27;20357;-74
2023/08/07 12:14:44;;;;;;;4.00;1.10;;;;;;;-140.66;100.00;55571.53;5135013;28;20110;-74
2023/08/07 12:17:31;;;;;;;13.18;1.60;;;;;;;-140.66;100.00;55571.53;5133992;28;20035;-74
2023/08/07 12:20:18;;;;;;;3.22;1.40;;;;;;;-140.66;100.00;55571.53;5137044;27;20042;-74
2023/08/07 12:23:03;;;;;;;3.90;1.88;;;;;;;-140.66;100.00;55571.53;5138355;27;20027;-75
2023/08/07 12:25:49;;;;;;;2.28;1.50;;;;;;;-140.66;100.00;55571.53;5137513;27;20099;-74
2023/08/07 12:28:38;;;;;;;1.80;1.50;;;;;;;-140.66;100.00;55571.53;5137144;27;20031;-73
2023/08/07 12:31:23;;;;;;;1.70;1.30;;;;;;;-140.66;100.00;55571.53;5139623;27;20023;-74
2023/08/07 12:34:10;;;;;;;2.38;1.00;;;;;;;-140.66;100.00;55571.53;5138529;27;20023;-74
2023/08/07 12:36:56;;;;;;;2.33;1.27;;;;;;;-140.66;100.00;55571.53;5138840;27;20355;-74